createdAt,value
2022-10-23T00:01:44.286Z,10.40
2022-10-23T00:04:21.050Z,10.30
2022-10-23T00:06:49.282Z,10.30
2022-10-23T00:09:20.881Z,10.00
2022-10-23T00:11:50.024Z,10.10
2022-10-23T00:14:20.503Z,10.20
2022-10-23T00:16:47.611Z,10.20
2022-10-23T00:19:14.897Z,10.30
2022-10-23T00:21:42.001Z,10.20
2022-10-23T00:26:42.019Z,10.00
2022-10-23T00:29:10.863Z,9.90
2022-10-23T00:31:38.764Z,10.00
2022-10-23T00:34:08.491Z,9.90
2022-10-23T00:36:36.609Z,10.00
2022-10-23T00:39:05.343Z,10.10
2022-10-23T00:41:33.721Z,10.10
2022-10-23T00:44:05.057Z,10.20
2022-10-23T00:46:32.636Z,10.10
2022-10-23T00:49:01.128Z,10.10
2022-10-23T00:51:34.493Z,10.10
2022-10-23T00:56:52.266Z,10.10
2022-10-23T00:59:19.258Z,9.90
2022-10-23T01:01:46.420Z,9.90
2022-10-23T01:04:13.569Z,9.90
2022-10-23T01:06:58.417Z,9.90
2022-10-23T01:09:39.443Z,9.80
2022-10-23T01:12:37.441Z,9.80
2022-10-23T01:15:16.032Z,9.80
2022-10-23T01:17:52.396Z,9.70
2022-10-23T01:20:35.155Z,9.70
2022-10-23T01:23:31.219Z,9.80
2022-10-23T01:26:31.755Z,9.70
2022-10-23T01:29:12.922Z,9.70
2022-10-23T01:31:43.944Z,9.70
2022-10-23T01:34:16.539Z,9.70
2022-10-23T01:36:49.084Z,9.70
2022-10-23T01:39:23.425Z,9.70
2022-10-23T01:41:58.227Z,9.60
2022-10-23T01:44:47.291Z,9.60
2022-10-23T01:47:18.946Z,9.80
2022-10-23T01:49:48.575Z,9.50
2022-10-23T01:52:18.442Z,9.50
2022-10-23T01:54:47.623Z,9.50
2022-10-23T01:57:18.387Z,9.50
2022-10-23T01:59:57.645Z,9.40
2022-10-23T02:02:26.811Z,9.40
2022-10-23T02:05:18.619Z,9.40
2022-10-23T02:07:46.217Z,9.40
2022-10-23T02:10:14.295Z,9.40
2022-10-23T02:13:23.749Z,9.40
2022-10-23T02:16:27.928Z,9.40
2022-10-23T02:19:10.342Z,9.30
2022-10-23T02:21:41.640Z,9.40
2022-10-23T02:24:20.794Z,9.40
2022-10-23T02:27:01.874Z,9.30
2022-10-23T02:29:39.161Z,9.30
2022-10-23T02:32:09.191Z,9.30
2022-10-23T02:34:36.424Z,9.30
2022-10-23T02:37:04.106Z,9.30
2022-10-23T02:39:31.419Z,9.20
2022-10-23T02:42:12.040Z,9.10
2022-10-23T02:45:07.478Z,9.20
2022-10-23T02:48:12.999Z,9.30
2022-10-23T02:51:12.228Z,9.50
2022-10-23T02:54:00.883Z,9.80
2022-10-23T02:56:42.335Z,9.90
2022-10-23T02:59:21.510Z,10.00
2022-10-23T03:01:53.809Z,10.00
2022-10-23T03:04:24.378Z,10.00
2022-10-23T03:06:52.157Z,10.10
2022-10-23T03:09:19.635Z,10.20
2022-10-23T03:11:46.850Z,10.20
2022-10-23T03:14:14.437Z,10.20
2022-10-23T03:16:41.540Z,10.20
2022-10-23T03:19:08.788Z,10.20
2022-10-23T03:21:35.879Z,10.20
2022-10-23T03:24:02.902Z,10.20
2022-10-23T03:26:29.930Z,10.20
2022-10-23T03:28:56.922Z,10.20
2022-10-23T03:31:23.940Z,10.20
2022-10-23T03:33:50.991Z,10.20
2022-10-23T03:36:18.075Z,10.20
2022-10-23T03:38:45.081Z,10.10
2022-10-23T03:41:12.122Z,10.00
2022-10-23T03:43:39.180Z,9.80
2022-10-23T03:46:10.002Z,9.70
2022-10-23T03:48:38.374Z,9.50
2022-10-23T03:51:06.641Z,9.60
2022-10-23T03:53:33.984Z,9.60
2022-10-23T03:56:01.247Z,9.60
2022-10-23T03:58:28.448Z,9.60
2022-10-23T04:00:55.447Z,9.60
2022-10-23T04:03:22.492Z,9.60
2022-10-23T04:05:52.189Z,9.70
2022-10-23T04:08:20.303Z,9.80
2022-10-23T04:10:47.605Z,9.80
2022-10-23T04:13:14.655Z,9.90
2022-10-23T04:15:41.650Z,9.90
2022-10-23T04:18:08.703Z,9.90
2022-10-23T04:20:35.680Z,9.90
2022-10-23T04:23:02.691Z,9.90
2022-10-23T04:25:29.799Z,10.00
2022-10-23T04:27:56.795Z,10.00
2022-10-23T04:30:23.858Z,10.00
2022-10-23T04:32:51.914Z,10.00
2022-10-23T04:35:20.036Z,10.00
2022-10-23T04:37:47.135Z,10.00
2022-10-23T04:40:14.459Z,9.90
2022-10-23T04:42:41.737Z,9.90
2022-10-23T04:45:09.578Z,10.00
2022-10-23T04:47:36.650Z,10.00
2022-10-23T04:50:04.728Z,10.00
2022-10-23T04:52:31.726Z,10.00
2022-10-23T04:54:58.750Z,10.00
2022-10-23T04:57:26.051Z,10.00
2022-10-23T04:59:53.023Z,10.00
2022-10-23T05:02:20.142Z,10.10
2022-10-23T05:04:47.144Z,10.10
2022-10-23T05:07:14.217Z,10.10
2022-10-23T05:09:41.422Z,10.10
2022-10-23T05:12:08.709Z,10.00
2022-10-23T05:14:35.694Z,9.80
2022-10-23T05:17:09.402Z,9.80
2022-10-23T05:19:43.814Z,9.80
2022-10-23T05:22:12.535Z,9.70
2022-10-23T05:24:40.864Z,9.60
2022-10-23T05:27:07.935Z,9.70
2022-10-23T05:29:34.995Z,9.80
2022-10-23T05:32:05.842Z,9.80
2022-10-23T05:34:35.978Z,9.80
2022-10-23T05:37:05.010Z,9.70
2022-10-23T05:39:33.386Z,9.60
2022-10-23T05:42:00.767Z,9.60
2022-10-23T05:44:27.899Z,9.60
2022-10-23T05:46:55.056Z,9.60
2022-10-23T05:49:25.639Z,9.60
2022-10-23T05:51:53.060Z,9.60
2022-10-23T05:54:21.149Z,9.70
2022-10-23T05:56:48.195Z,9.60
2022-10-23T05:59:19.076Z,9.70
2022-10-23T06:01:49.161Z,9.70
2022-10-23T06:04:16.194Z,9.70
2022-10-23T06:06:46.955Z,9.70
2022-10-23T06:09:15.460Z,9.80
2022-10-23T06:11:43.085Z,9.90
2022-10-23T06:14:10.163Z,10.00
2022-10-23T06:16:37.242Z,10.10
2022-10-23T06:19:04.365Z,10.10
2022-10-23T06:21:31.350Z,10.20
2022-10-23T06:23:58.389Z,10.30
2022-10-23T06:26:25.500Z,10.30
2022-10-23T06:28:52.489Z,10.40
2022-10-23T06:31:20.525Z,10.40
2022-10-23T06:33:47.578Z,10.40
2022-10-23T06:36:14.595Z,10.40
2022-10-23T06:38:41.672Z,10.40
2022-10-23T06:41:15.848Z,10.40
2022-10-23T06:43:42.909Z,10.40
2022-10-23T06:46:10.924Z,10.50
2022-10-23T06:48:38.017Z,10.50
2022-10-23T06:51:11.862Z,10.50
2022-10-23T06:53:39.644Z,10.60
2022-10-23T06:56:08.317Z,10.70
2022-10-23T06:58:37.622Z,10.80
2022-10-23T07:01:08.744Z,10.70
2022-10-23T07:03:36.274Z,10.70
2022-10-23T07:06:07.230Z,10.70
2022-10-23T07:08:34.375Z,10.70
2022-10-23T07:11:10.333Z,10.80
2022-10-23T07:13:38.704Z,10.80
2022-10-23T07:16:17.354Z,10.90
2022-10-23T07:18:45.170Z,11.00
2022-10-23T07:21:12.254Z,11.00
2022-10-23T07:23:39.443Z,11.10
2022-10-23T07:26:16.971Z,11.20
2022-10-23T07:28:46.715Z,11.30
2022-10-23T07:31:14.386Z,11.40
2022-10-23T07:33:41.423Z,11.40
2022-10-23T07:36:10.150Z,11.50
2022-10-23T07:38:37.332Z,11.50
2022-10-23T07:41:05.910Z,11.60
2022-10-23T07:43:35.466Z,11.80
2022-10-23T07:46:03.301Z,11.80
2022-10-23T07:48:30.826Z,11.90
2022-10-23T07:51:08.330Z,12.00
2022-10-23T07:53:36.520Z,12.10
2022-10-23T07:56:14.970Z,12.20
2022-10-23T07:58:42.282Z,12.30
2022-10-23T08:01:20.571Z,12.50
2022-10-23T08:03:47.903Z,12.60
2022-10-23T08:06:15.259Z,12.70
2022-10-23T08:08:42.392Z,12.90
2022-10-23T08:11:13.877Z,13.00
2022-10-23T08:13:41.301Z,13.20
2022-10-23T08:16:08.596Z,13.30
2022-10-23T08:18:35.632Z,13.40
2022-10-23T08:21:04.553Z,13.50
2022-10-23T08:23:31.839Z,13.70
2022-10-23T08:26:01.478Z,13.80
2022-10-23T08:28:29.063Z,13.90
2022-10-23T08:30:56.475Z,14.00
2022-10-23T08:33:24.063Z,14.10
2022-10-23T08:35:51.678Z,14.20
2022-10-23T08:38:18.756Z,14.30
2022-10-23T08:40:48.573Z,14.40
2022-10-23T08:43:30.711Z,14.40
2022-10-23T08:46:08.559Z,14.50
2022-10-23T08:48:57.266Z,14.60
2022-10-23T08:51:40.190Z,14.70
2022-10-23T08:54:12.905Z,14.80
2022-10-23T08:56:43.392Z,14.90
2022-10-23T08:59:50.337Z,15.00
2022-10-23T09:02:25.808Z,15.10
2022-10-23T09:04:56.670Z,15.30
2022-10-23T09:07:45.987Z,15.50
2022-10-23T09:10:55.614Z,15.60
2022-10-23T09:13:55.688Z,15.80
2022-10-23T09:16:32.547Z,16.00
2022-10-23T09:18:59.814Z,16.20
2022-10-23T09:21:30.548Z,16.40
2022-10-23T09:23:57.590Z,16.60
2022-10-23T09:26:24.762Z,16.80
2022-10-23T09:29:01.447Z,17.00
2022-10-23T09:31:28.457Z,17.00
2022-10-23T09:34:01.767Z,17.10
2022-10-23T09:36:29.748Z,17.30
2022-10-23T09:39:00.839Z,17.40
2022-10-23T09:41:35.842Z,17.50
2022-10-23T09:44:08.923Z,17.70
2022-10-23T09:46:54.050Z,18.00
2022-10-23T09:49:31.215Z,18.30
2022-10-23T09:52:10.100Z,18.50
2022-10-23T09:54:46.872Z,18.70
2022-10-23T09:57:41.302Z,18.80
2022-10-23T10:00:23.850Z,19.00
2022-10-23T10:03:00.944Z,19.10
2022-10-23T10:05:30.683Z,19.00
2022-10-23T10:08:18.368Z,19.00
2022-10-23T10:11:00.715Z,18.80
2022-10-23T10:13:33.535Z,18.60
2022-10-23T10:16:44.253Z,18.50
2022-10-23T10:19:31.174Z,18.50
2022-10-23T10:22:41.714Z,18.60
2022-10-23T10:25:32.778Z,18.80
2022-10-23T10:28:38.642Z,18.80
2022-10-23T10:31:34.811Z,18.90
2022-10-23T10:34:10.631Z,19.00
2022-10-23T10:36:56.723Z,19.00
2022-10-23T10:39:54.226Z,18.70
2022-10-23T10:42:45.831Z,18.40
2022-10-23T10:46:03.059Z,18.20
2022-10-23T10:49:02.270Z,18.00
2022-10-23T10:52:07.841Z,18.00
2022-10-23T10:54:49.885Z,18.00
2022-10-23T10:57:37.428Z,18.00
2022-10-23T11:00:20.363Z,17.90
2022-10-23T11:02:58.066Z,17.90
2022-10-23T11:05:31.738Z,17.90
2022-10-23T11:08:07.423Z,17.90
2022-10-23T11:10:39.427Z,18.00
2022-10-23T11:13:06.527Z,18.10
2022-10-23T11:15:43.105Z,18.30
2022-10-23T11:18:23.085Z,18.50
2022-10-23T11:21:17.443Z,18.60
2022-10-23T11:24:15.395Z,18.80
2022-10-23T11:27:02.210Z,19.20
2022-10-23T11:30:00.079Z,19.40
2022-10-23T11:32:49.295Z,19.80
2022-10-23T11:35:19.064Z,20.40
2022-10-23T11:37:58.039Z,21.00
2022-10-23T11:40:26.016Z,21.50
2022-10-23T11:42:53.206Z,21.60
2022-10-23T11:45:26.662Z,21.60
2022-10-23T11:48:06.115Z,21.40
2022-10-23T11:50:50.859Z,21.20
2022-10-23T11:53:31.961Z,21.00
2022-10-23T11:56:14.751Z,20.80
2022-10-23T11:58:47.222Z,20.70
2022-10-23T12:01:42.399Z,20.60
2022-10-23T12:04:15.442Z,20.40
2022-10-23T12:06:54.043Z,20.10
2022-10-23T12:09:28.709Z,20.00
2022-10-23T12:12:07.688Z,20.00
2022-10-23T12:14:49.643Z,20.30
2022-10-23T12:17:38.846Z,20.80
2022-10-23T12:20:08.805Z,21.70
2022-10-23T12:23:02.983Z,22.40
2022-10-23T12:26:16.867Z,23.20
2022-10-23T12:29:09.591Z,24.00
2022-10-23T12:31:55.507Z,24.60
2022-10-23T12:34:40.328Z,24.90
2022-10-23T12:37:25.686Z,24.80
2022-10-23T12:39:56.547Z,24.30
2022-10-23T12:42:29.143Z,23.80
2022-10-23T12:45:14.110Z,23.30
2022-10-23T12:47:43.434Z,22.70
2022-10-23T12:50:25.838Z,22.40
2022-10-23T12:53:04.843Z,22.00
2022-10-23T12:55:49.393Z,22.00
2022-10-23T12:58:35.826Z,21.90
2022-10-23T13:01:07.085Z,21.70
2022-10-23T13:03:35.353Z,21.80
2022-10-23T13:06:04.117Z,21.90
2022-10-23T13:08:47.675Z,21.80
2022-10-23T13:11:19.068Z,21.80
2022-10-23T13:13:47.208Z,21.70
2022-10-23T13:16:23.532Z,22.00
2022-10-23T13:18:50.938Z,22.10
2022-10-23T13:21:27.286Z,21.80
2022-10-23T13:23:55.019Z,21.30
2022-10-23T13:26:35.952Z,20.80
2022-10-23T13:29:07.441Z,20.40
2022-10-23T13:31:36.951Z,20.30
2022-10-23T13:34:16.724Z,20.50
2022-10-23T13:37:23.555Z,20.50
2022-10-23T13:40:10.685Z,20.60
2022-10-23T13:42:37.726Z,20.60
2022-10-23T13:45:11.823Z,20.40
2022-10-23T13:47:38.855Z,20.40
2022-10-23T13:50:07.795Z,20.20
2022-10-23T13:52:34.782Z,20.00
2022-10-23T13:55:01.819Z,19.90
2022-10-23T13:57:28.794Z,19.70
2022-10-23T13:59:55.800Z,19.50
2022-10-23T14:02:25.019Z,19.30
2022-10-23T14:04:52.259Z,19.30
2022-10-23T14:07:19.370Z,19.30
2022-10-23T14:09:46.437Z,19.50
2022-10-23T14:12:13.704Z,19.30
2022-10-23T14:14:40.785Z,19.30
2022-10-23T14:17:07.843Z,19.20
2022-10-23T14:19:34.936Z,19.00
2022-10-23T14:22:01.910Z,18.90
2022-10-23T14:24:30.618Z,18.90
2022-10-23T14:26:57.651Z,18.70
2022-10-23T14:29:26.151Z,18.60
2022-10-23T14:31:55.894Z,18.60
2022-10-23T14:34:22.944Z,18.60
2022-10-23T14:36:56.677Z,18.50
2022-10-23T14:39:31.042Z,18.40
2022-10-23T14:41:58.030Z,18.20
2022-10-23T14:44:26.278Z,18.10
2022-10-23T14:46:53.472Z,18.00
2022-10-23T14:49:20.692Z,17.90
2022-10-23T14:51:47.843Z,17.90
2022-10-23T14:54:15.853Z,17.90
2022-10-23T14:56:43.010Z,17.80
2022-10-23T14:59:10.912Z,17.70
2022-10-23T15:01:45.912Z,17.60
2022-10-23T15:04:15.889Z,17.60
2022-10-23T15:06:43.575Z,17.50
2022-10-23T15:09:10.760Z,17.50
2022-10-23T15:11:37.873Z,17.40
2022-10-23T15:14:04.980Z,17.50
2022-10-23T15:16:32.132Z,17.40
2022-10-23T15:18:59.245Z,17.50
2022-10-23T15:21:26.318Z,17.40
2022-10-23T15:23:54.837Z,17.40
2022-10-23T15:26:26.397Z,17.40
2022-10-23T15:28:56.288Z,17.40
2022-10-23T15:31:29.394Z,17.30
2022-10-23T15:34:01.299Z,17.20
2022-10-23T15:36:28.271Z,17.10
2022-10-23T15:38:56.683Z,17.00
2022-10-23T15:41:35.406Z,17.00
2022-10-23T15:44:04.432Z,16.90
2022-10-23T15:46:31.503Z,16.90
2022-10-23T15:48:58.711Z,16.80
2022-10-23T15:51:26.219Z,16.80
2022-10-23T15:53:53.434Z,16.70
2022-10-23T15:56:20.534Z,16.70
2022-10-23T15:58:47.529Z,16.60
2022-10-23T16:01:14.803Z,16.50
2022-10-23T16:03:42.499Z,16.40
2022-10-23T16:06:13.805Z,16.40
2022-10-23T16:08:43.879Z,16.30
2022-10-23T16:11:18.624Z,16.30
2022-10-23T16:13:46.038Z,16.20
2022-10-23T16:16:14.176Z,16.10
2022-10-23T16:18:43.717Z,16.00
2022-10-23T16:21:18.739Z,15.90
2022-10-23T16:23:46.189Z,15.80
2022-10-23T16:26:13.462Z,15.80
2022-10-23T16:28:41.181Z,15.70
2022-10-23T16:31:19.176Z,15.70
2022-10-23T16:33:48.610Z,15.70
2022-10-23T16:36:16.720Z,15.60
2022-10-23T16:38:43.826Z,15.60
2022-10-23T16:41:10.877Z,15.60
2022-10-23T16:43:38.139Z,15.60
2022-10-23T16:46:20.260Z,15.60
2022-10-23T16:48:49.174Z,15.60
2022-10-23T16:51:19.668Z,15.70
2022-10-23T16:53:47.534Z,15.70
2022-10-23T16:56:19.508Z,15.80
2022-10-23T16:58:46.733Z,15.80
2022-10-23T17:01:20.978Z,15.90
2022-10-23T17:03:52.209Z,15.90
2022-10-23T17:06:29.801Z,15.80
2022-10-23T17:08:58.490Z,15.80
2022-10-23T17:11:29.201Z,15.80
2022-10-23T17:14:03.182Z,15.80
2022-10-23T17:16:38.331Z,15.80
2022-10-23T17:19:15.833Z,15.80
2022-10-23T17:21:48.434Z,15.80
2022-10-23T17:24:15.549Z,15.80
2022-10-23T17:26:43.499Z,15.80
2022-10-23T17:29:13.677Z,15.90
2022-10-23T17:31:45.429Z,16.00
2022-10-23T17:34:17.858Z,16.10
2022-10-23T17:36:49.384Z,16.10
2022-10-23T17:39:21.447Z,16.10
2022-10-23T17:41:49.113Z,16.00
2022-10-23T17:44:16.574Z,16.00
2022-10-23T17:46:43.899Z,15.90
2022-10-23T17:49:12.621Z,15.80
2022-10-23T17:51:39.686Z,15.90
2022-10-23T17:54:11.266Z,15.80
2022-10-23T17:56:40.783Z,15.80
2022-10-23T17:59:12.655Z,15.90
2022-10-23T18:01:40.452Z,15.80
2022-10-23T18:04:08.325Z,15.90
2022-10-23T18:06:42.150Z,15.70
2022-10-23T18:09:11.652Z,15.70
2022-10-23T18:11:45.323Z,15.50
2022-10-23T18:14:17.024Z,15.50
2022-10-23T18:16:45.872Z,15.40
2022-10-23T18:19:14.212Z,15.30
2022-10-23T18:21:41.521Z,15.30
2022-10-23T18:24:08.831Z,15.20
2022-10-23T18:26:37.773Z,15.20
2022-10-23T18:29:07.855Z,15.20
2022-10-23T18:31:37.470Z,15.20
2022-10-23T18:34:24.989Z,15.10
2022-10-23T18:36:54.597Z,15.10
2022-10-23T18:39:25.258Z,15.10
2022-10-23T18:41:56.431Z,15.10
2022-10-23T18:44:27.047Z,15.10
2022-10-23T18:46:55.123Z,15.10
2022-10-23T18:49:22.235Z,15.10
2022-10-23T18:51:50.185Z,15.10
2022-10-23T18:54:20.588Z,15.00
2022-10-23T18:56:48.026Z,15.00
2022-10-23T18:59:19.029Z,15.00
2022-10-23T19:01:46.145Z,14.90
2022-10-23T19:04:17.771Z,14.90
2022-10-23T19:06:51.603Z,14.80
2022-10-23T19:09:19.132Z,14.80
2022-10-23T19:11:46.722Z,14.80
2022-10-23T19:14:13.862Z,14.80
2022-10-23T19:16:52.952Z,14.80
2022-10-23T19:19:29.827Z,14.80
2022-10-23T19:21:57.645Z,14.80
2022-10-23T19:24:55.106Z,14.80
2022-10-23T19:27:22.599Z,14.70
2022-10-23T19:29:52.198Z,14.70
2022-10-23T19:32:21.780Z,14.70
2022-10-23T19:34:48.964Z,14.70
2022-10-23T19:37:16.625Z,14.70
2022-10-23T19:39:43.674Z,14.70
2022-10-23T19:42:10.746Z,14.70
2022-10-23T19:44:38.302Z,14.70
2022-10-23T19:47:05.524Z,14.70
2022-10-23T19:49:32.590Z,14.70
2022-10-23T19:51:59.703Z,14.70
2022-10-23T19:54:26.766Z,14.70
2022-10-23T19:56:53.824Z,14.70
2022-10-23T19:59:20.887Z,14.70
2022-10-23T20:01:49.172Z,14.70
2022-10-23T20:04:18.583Z,14.70
2022-10-23T20:06:45.843Z,14.70
2022-10-23T20:09:13.647Z,14.70
2022-10-23T20:11:41.127Z,14.70
2022-10-23T20:14:09.964Z,14.60
2022-10-23T20:16:39.456Z,14.60
2022-10-23T20:19:09.540Z,14.50
2022-10-23T20:21:39.064Z,14.50
2022-10-23T20:24:07.143Z,14.40
2022-10-23T20:26:34.407Z,14.40
2022-10-23T20:29:01.466Z,14.30
2022-10-23T20:31:28.675Z,14.30
2022-10-23T20:33:57.162Z,14.30
2022-10-23T20:36:37.958Z,14.30
2022-10-23T20:39:13.426Z,14.20
2022-10-23T20:41:41.942Z,14.20
2022-10-23T20:44:14.410Z,14.20
2022-10-23T20:46:42.466Z,14.20
2022-10-23T20:49:11.084Z,14.20
2022-10-23T20:51:38.192Z,14.20
2022-10-23T20:54:05.810Z,14.20
2022-10-23T20:56:37.731Z,14.20
2022-10-23T20:59:10.123Z,14.20
2022-10-23T21:01:44.529Z,14.20
2022-10-23T21:04:14.220Z,14.20
2022-10-23T21:06:57.806Z,14.20
2022-10-23T21:09:30.779Z,14.20
2022-10-23T21:11:57.803Z,14.10
2022-10-23T21:14:24.846Z,14.20
2022-10-23T21:16:51.865Z,14.20
2022-10-23T21:19:18.938Z,14.20
2022-10-23T21:21:45.922Z,14.20
2022-10-23T21:24:15.837Z,14.30
2022-10-23T21:26:44.051Z,14.20
2022-10-23T21:29:20.362Z,14.30
2022-10-23T21:31:57.297Z,14.20
2022-10-23T21:34:26.227Z,14.30
2022-10-23T21:37:12.288Z,14.30
2022-10-23T21:39:41.699Z,14.30
2022-10-23T21:42:08.911Z,14.30
2022-10-23T21:44:36.330Z,14.30
2022-10-23T21:47:03.647Z,14.30
2022-10-23T21:49:30.629Z,14.30
2022-10-23T21:51:57.843Z,14.30
2022-10-23T21:54:24.868Z,14.30
2022-10-23T21:56:56.289Z,14.30
2022-10-23T21:59:30.151Z,14.20
2022-10-23T22:01:58.860Z,14.20
2022-10-23T22:04:26.044Z,14.20
2022-10-23T22:06:53.407Z,14.20
2022-10-23T22:09:21.633Z,14.10
2022-10-23T22:11:51.407Z,14.10
2022-10-23T22:14:18.800Z,14.10
2022-10-23T22:16:46.668Z,14.10
2022-10-23T22:19:16.799Z,14.00
2022-10-23T22:21:44.080Z,14.10
2022-10-23T22:24:11.510Z,14.00
2022-10-23T22:26:54.896Z,13.90
2022-10-23T22:29:29.353Z,14.00
2022-10-23T22:31:57.498Z,14.00
2022-10-23T22:34:53.792Z,13.90
2022-10-23T22:37:15.985Z,13.90
2022-10-23T22:39:43.141Z,13.90
2022-10-23T22:42:10.286Z,13.80
2022-10-23T22:44:37.339Z,13.80
2022-10-23T22:47:04.622Z,13.80
2022-10-23T22:49:31.614Z,13.80
2022-10-23T22:51:58.737Z,13.70
2022-10-23T22:54:25.956Z,13.70
2022-10-23T22:56:52.990Z,13.60
2022-10-23T22:59:20.031Z,13.60
2022-10-23T23:01:48.450Z,13.50
2022-10-23T23:07:10.723Z,13.40
2022-10-23T23:09:41.196Z,13.30
2022-10-23T23:12:12.619Z,13.30
2022-10-23T23:14:40.622Z,13.30
2022-10-23T23:17:09.295Z,13.30
2022-10-23T23:19:36.445Z,13.30
2022-10-23T23:22:03.924Z,13.40
2022-10-23T23:24:31.033Z,13.70
2022-10-23T23:26:58.091Z,13.80
2022-10-23T23:29:27.073Z,14.00
2022-10-23T23:31:54.113Z,14.20
2022-10-23T23:34:21.242Z,14.30
2022-10-23T23:36:48.320Z,14.40
2022-10-23T23:39:15.301Z,14.40
2022-10-23T23:41:42.417Z,14.50
2022-10-23T23:44:10.210Z,14.60
2022-10-23T23:46:37.208Z,14.70
2022-10-23T23:49:04.414Z,14.80
2022-10-23T23:51:31.724Z,14.90
2022-10-23T23:53:58.741Z,15.00
2022-10-23T23:56:26.018Z,15.10
2022-10-23T23:58:52.998Z,15.20
